sensor_id;sensor_type;location;lat;lon;timestamp;P1;durP1;ratioP1;P2;durP2;ratioP2
33094;SDS011;19459;53.044;8.910;2024-02-28T00:02:02;46.60;;;21.55;;
33094;SDS011;19459;53.044;8.910;2024-02-28T00:04:28;37.38;;;19.92;;
33094;SDS011;19459;53.044;8.910;2024-02-28T00:06:54;37.05;;;20.33;;
33094;SDS011;19459;53.044;8.910;2024-02-28T00:09:19;43.03;;;22.13;;
33094;SDS011;19459;53.044;8.910;2024-02-28T00:11:46;43.63;;;21.75;;
33094;SDS011;19459;53.044;8.910;2024-02-28T00:14:12;41.15;;;21.65;;
33094;SDS011;19459;53.044;8.910;2024-02-28T00:16:42;41.30;;;21.48;;
33094;SDS011;19459;53.044;8.910;2024-02-28T00:19:08;39.80;;;20.60;;
33094;SDS011;19459;53.044;8.910;2024-02-28T00:21:36;45.15;;;22.02;;
33094;SDS011;19459;53.044;8.910;2024-02-28T00:24:02;45.60;;;22.88;;
33094;SDS011;19459;53.044;8.910;2024-02-28T00:26:28;40.40;;;21.80;;
33094;SDS011;19459;53.044;8.910;2024-02-28T00:28:54;41.97;;;22.23;;
33094;SDS011;19459;53.044;8.910;2024-02-28T00:31:19;43.53;;;21.40;;
33094;SDS011;19459;53.044;8.910;2024-02-28T00:33:46;41.63;;;22.58;;
33094;SDS011;19459;53.044;8.910;2024-02-28T00:36:12;39.78;;;20.85;;
33094;SDS011;19459;53.044;8.910;2024-02-28T00:38:40;43.70;;;23.15;;
33094;SDS011;19459;53.044;8.910;2024-02-28T00:41:06;43.08;;;22.50;;
33094;SDS011;19459;53.044;8.910;2024-02-28T00:43:32;45.10;;;22.52;;
33094;SDS011;19459;53.044;8.910;2024-02-28T00:45:58;43.03;;;22.77;;
33094;SDS011;19459;53.044;8.910;2024-02-28T00:48:24;43.92;;;22.98;;
33094;SDS011;19459;53.044;8.910;2024-02-28T00:50:50;41.45;;;22.08;;
33094;SDS011;19459;53.044;8.910;2024-02-28T00:53:17;42.35;;;22.60;;
33094;SDS011;19459;53.044;8.910;2024-02-28T00:55:43;44.70;;;22.95;;
33094;SDS011;19459;53.044;8.910;2024-02-28T00:58:08;46.42;;;22.33;;
33094;SDS011;19459;53.044;8.910;2024-02-28T01:00:35;47.00;;;24.10;;
33094;SDS011;19459;53.044;8.910;2024-02-28T01:03:01;45.92;;;24.30;;
33094;SDS011;19459;53.044;8.910;2024-02-28T01:05:30;48.42;;;27.08;;
33094;SDS011;19459;53.044;8.910;2024-02-28T01:07:56;48.83;;;25.38;;
33094;SDS011;19459;53.044;8.910;2024-02-28T01:10:22;46.10;;;24.98;;
33094;SDS011;19459;53.044;8.910;2024-02-28T01:12:48;47.53;;;24.30;;
33094;SDS011;19459;53.044;8.910;2024-02-28T01:15:14;51.40;;;24.85;;
33094;SDS011;19459;53.044;8.910;2024-02-28T01:17:39;46.22;;;24.27;;
33094;SDS011;19459;53.044;8.910;2024-02-28T01:20:06;47.28;;;25.15;;
33094;SDS011;19459;53.044;8.910;2024-02-28T01:22:33;48.55;;;24.33;;
33094;SDS011;19459;53.044;8.910;2024-02-28T01:25:00;52.85;;;26.35;;
33094;SDS011;19459;53.044;8.910;2024-02-28T01:27:28;48.60;;;25.42;;
33094;SDS011;19459;53.044;8.910;2024-02-28T01:29:54;52.90;;;26.27;;
33094;SDS011;19459;53.044;8.910;2024-02-28T01:32:19;51.63;;;26.33;;
33094;SDS011;19459;53.044;8.910;2024-02-28T01:34:45;47.55;;;24.52;;
33094;SDS011;19459;53.044;8.910;2024-02-28T01:37:11;46.58;;;24.52;;
33094;SDS011;19459;53.044;8.910;2024-02-28T01:39:37;48.67;;;25.25;;
33094;SDS011;19459;53.044;8.910;2024-02-28T01:42:03;51.53;;;26.63;;
33094;SDS011;19459;53.044;8.910;2024-02-28T01:44:29;49.22;;;24.73;;
33094;SDS011;19459;53.044;8.910;2024-02-28T01:46:55;45.78;;;23.92;;
33094;SDS011;19459;53.044;8.910;2024-02-28T01:49:23;51.85;;;24.05;;
33094;SDS011;19459;53.044;8.910;2024-02-28T01:51:50;52.03;;;25.38;;
33094;SDS011;19459;53.044;8.910;2024-02-28T01:54:18;53.30;;;25.40;;
33094;SDS011;19459;53.044;8.910;2024-02-28T01:56:46;47.83;;;24.70;;
33094;SDS011;19459;53.044;8.910;2024-02-28T01:59:12;47.90;;;24.90;;
33094;SDS011;19459;53.044;8.910;2024-02-28T02:01:39;47.15;;;23.70;;
33094;SDS011;19459;53.044;8.910;2024-02-28T02:04:06;49.58;;;23.48;;
33094;SDS011;19459;53.044;8.910;2024-02-28T02:06:32;47.80;;;24.23;;
33094;SDS011;19459;53.044;8.910;2024-02-28T02:08:58;49.28;;;25.40;;
33094;SDS011;19459;53.044;8.910;2024-02-28T02:11:24;51.25;;;25.60;;
33094;SDS011;19459;53.044;8.910;2024-02-28T02:13:51;57.30;;;27.10;;
33094;SDS011;19459;53.044;8.910;2024-02-28T02:16:18;50.53;;;26.00;;
33094;SDS011;19459;53.044;8.910;2024-02-28T02:18:47;53.42;;;26.83;;
33094;SDS011;19459;53.044;8.910;2024-02-28T02:21:15;46.03;;;24.00;;
33094;SDS011;19459;53.044;8.910;2024-02-28T02:23:45;51.42;;;24.92;;
33094;SDS011;19459;53.044;8.910;2024-02-28T02:26:11;50.92;;;25.42;;
33094;SDS011;19459;53.044;8.910;2024-02-28T02:28:36;53.72;;;26.05;;
33094;SDS011;19459;53.044;8.910;2024-02-28T02:31:02;49.65;;;25.17;;
33094;SDS011;19459;53.044;8.910;2024-02-28T02:33:29;51.20;;;25.73;;
33094;SDS011;19459;53.044;8.910;2024-02-28T02:35:54;47.70;;;24.25;;
33094;SDS011;19459;53.044;8.910;2024-02-28T02:38:20;51.85;;;26.13;;
33094;SDS011;19459;53.044;8.910;2024-02-28T02:40:52;53.20;;;25.70;;
33094;SDS011;19459;53.044;8.910;2024-02-28T02:43:18;54.70;;;28.15;;
33094;SDS011;19459;53.044;8.910;2024-02-28T02:45:44;55.78;;;27.50;;
33094;SDS011;19459;53.044;8.910;2024-02-28T02:48:10;53.92;;;25.83;;
33094;SDS011;19459;53.044;8.910;2024-02-28T02:50:36;52.47;;;26.25;;
33094;SDS011;19459;53.044;8.910;2024-02-28T02:53:02;57.28;;;26.75;;
33094;SDS011;19459;53.044;8.910;2024-02-28T02:55:29;53.22;;;27.40;;
33094;SDS011;19459;53.044;8.910;2024-02-28T02:57:55;58.47;;;27.40;;
33094;SDS011;19459;53.044;8.910;2024-02-28T03:00:21;54.35;;;26.88;;
33094;SDS011;19459;53.044;8.910;2024-02-28T03:02:47;61.88;;;29.60;;
33094;SDS011;19459;53.044;8.910;2024-02-28T03:05:13;59.72;;;28.95;;
33094;SDS011;19459;53.044;8.910;2024-02-28T03:07:39;59.30;;;30.00;;
33094;SDS011;19459;53.044;8.910;2024-02-28T03:10:05;70.93;;;32.13;;
33094;SDS011;19459;53.044;8.910;2024-02-28T03:12:31;62.15;;;29.15;;
33094;SDS011;19459;53.044;8.910;2024-02-28T03:14:58;66.28;;;32.25;;
33094;SDS011;19459;53.044;8.910;2024-02-28T03:17:24;64.35;;;32.03;;
33094;SDS011;19459;53.044;8.910;2024-02-28T03:19:50;66.32;;;31.77;;
33094;SDS011;19459;53.044;8.910;2024-02-28T03:22:16;70.15;;;33.45;;
33094;SDS011;19459;53.044;8.910;2024-02-28T03:24:42;68.28;;;31.10;;
33094;SDS011;19459;53.044;8.910;2024-02-28T03:27:07;71.70;;;33.50;;
33094;SDS011;19459;53.044;8.910;2024-02-28T03:29:33;70.00;;;33.75;;
33094;SDS011;19459;53.044;8.910;2024-02-28T03:31:59;79.75;;;37.30;;
33094;SDS011;19459;53.044;8.910;2024-02-28T03:34:24;78.43;;;37.50;;
33094;SDS011;19459;53.044;8.910;2024-02-28T03:36:53;84.22;;;38.13;;
33094;SDS011;19459;53.044;8.910;2024-02-28T03:39:19;80.13;;;36.38;;
33094;SDS011;19459;53.044;8.910;2024-02-28T03:41:44;77.15;;;36.92;;
33094;SDS011;19459;53.044;8.910;2024-02-28T03:44:10;93.32;;;39.10;;
33094;SDS011;19459;53.044;8.910;2024-02-28T03:46:36;84.75;;;40.33;;
33094;SDS011;19459;53.044;8.910;2024-02-28T03:49:02;81.55;;;38.15;;
33094;SDS011;19459;53.044;8.910;2024-02-28T03:51:27;79.97;;;38.67;;
33094;SDS011;19459;53.044;8.910;2024-02-28T03:53:54;78.03;;;38.40;;
33094;SDS011;19459;53.044;8.910;2024-02-28T03:56:23;79.75;;;38.05;;
33094;SDS011;19459;53.044;8.910;2024-02-28T03:58:50;77.82;;;38.78;;
33094;SDS011;19459;53.044;8.910;2024-02-28T04:01:17;80.50;;;36.75;;
33094;SDS011;19459;53.044;8.910;2024-02-28T04:03:43;75.03;;;35.78;;
33094;SDS011;19459;53.044;8.910;2024-02-28T04:06:08;71.35;;;34.33;;
33094;SDS011;19459;53.044;8.910;2024-02-28T04:08:35;76.85;;;36.17;;
33094;SDS011;19459;53.044;8.910;2024-02-28T04:11:01;77.15;;;37.05;;
33094;SDS011;19459;53.044;8.910;2024-02-28T04:13:27;80.25;;;37.95;;
33094;SDS011;19459;53.044;8.910;2024-02-28T04:15:53;76.38;;;37.85;;
33094;SDS011;19459;53.044;8.910;2024-02-28T04:18:19;86.63;;;39.03;;
33094;SDS011;19459;53.044;8.910;2024-02-28T04:20:45;84.10;;;38.58;;
33094;SDS011;19459;53.044;8.910;2024-02-28T04:23:11;83.80;;;39.65;;
33094;SDS011;19459;53.044;8.910;2024-02-28T04:25:37;85.00;;;41.38;;
33094;SDS011;19459;53.044;8.910;2024-02-28T04:28:05;86.00;;;39.63;;
33094;SDS011;19459;53.044;8.910;2024-02-28T04:30:32;78.47;;;37.17;;
33094;SDS011;19459;53.044;8.910;2024-02-28T04:32:58;82.88;;;38.40;;
33094;SDS011;19459;53.044;8.910;2024-02-28T04:35:24;79.05;;;36.75;;
33094;SDS011;19459;53.044;8.910;2024-02-28T04:37:50;77.45;;;38.08;;
33094;SDS011;19459;53.044;8.910;2024-02-28T04:40:15;84.32;;;38.92;;
33094;SDS011;19459;53.044;8.910;2024-02-28T04:42:41;88.63;;;38.60;;
33094;SDS011;19459;53.044;8.910;2024-02-28T04:45:10;84.57;;;36.30;;
33094;SDS011;19459;53.044;8.910;2024-02-28T04:47:36;78.65;;;35.88;;
33094;SDS011;19459;53.044;8.910;2024-02-28T04:50:03;83.90;;;38.00;;
33094;SDS011;19459;53.044;8.910;2024-02-28T04:52:31;78.65;;;35.67;;
33094;SDS011;19459;53.044;8.910;2024-02-28T04:54:57;79.03;;;37.05;;
33094;SDS011;19459;53.044;8.910;2024-02-28T04:57:23;85.47;;;36.75;;
33094;SDS011;19459;53.044;8.910;2024-02-28T04:59:49;83.00;;;37.67;;
33094;SDS011;19459;53.044;8.910;2024-02-28T05:02:14;80.60;;;34.55;;
33094;SDS011;19459;53.044;8.910;2024-02-28T05:04:41;79.40;;;36.78;;
33094;SDS011;19459;53.044;8.910;2024-02-28T05:07:07;82.18;;;37.78;;
33094;SDS011;19459;53.044;8.910;2024-02-28T05:09:34;81.15;;;36.90;;
33094;SDS011;19459;53.044;8.910;2024-02-28T05:12:00;76.25;;;36.80;;
33094;SDS011;19459;53.044;8.910;2024-02-28T05:14:26;80.00;;;37.35;;
33094;SDS011;19459;53.044;8.910;2024-02-28T05:16:52;81.50;;;36.42;;
33094;SDS011;19459;53.044;8.910;2024-02-28T05:19:18;82.45;;;38.28;;
33094;SDS011;19459;53.044;8.910;2024-02-28T05:21:44;82.13;;;38.03;;
33094;SDS011;19459;53.044;8.910;2024-02-28T05:24:10;82.88;;;40.05;;
33094;SDS011;19459;53.044;8.910;2024-02-28T05:26:37;87.45;;;40.17;;
33094;SDS011;19459;53.044;8.910;2024-02-28T05:29:04;84.22;;;38.08;;
33094;SDS011;19459;53.044;8.910;2024-02-28T05:31:30;91.35;;;38.90;;
33094;SDS011;19459;53.044;8.910;2024-02-28T05:33:57;103.35;;;43.00;;
33094;SDS011;19459;53.044;8.910;2024-02-28T05:36:25;103.45;;;42.45;;
33094;SDS011;19459;53.044;8.910;2024-02-28T05:38:55;119.55;;;45.50;;
33094;SDS011;19459;53.044;8.910;2024-02-28T05:41:23;139.55;;;51.42;;
33094;SDS011;19459;53.044;8.910;2024-02-28T05:43:49;123.38;;;48.20;;
33094;SDS011;19459;53.044;8.910;2024-02-28T05:46:16;123.65;;;47.20;;
33094;SDS011;19459;53.044;8.910;2024-02-28T05:48:43;132.23;;;48.15;;
33094;SDS011;19459;53.044;8.910;2024-02-28T05:51:10;131.10;;;52.35;;
33094;SDS011;19459;53.044;8.910;2024-02-28T05:53:39;132.60;;;47.40;;
33094;SDS011;19459;53.044;8.910;2024-02-28T05:56:06;135.88;;;48.75;;
33094;SDS011;19459;53.044;8.910;2024-02-28T05:58:43;141.82;;;49.50;;
33094;SDS011;19459;53.044;8.910;2024-02-28T06:01:10;126.55;;;49.53;;
33094;SDS011;19459;53.044;8.910;2024-02-28T06:03:36;128.23;;;49.72;;
33094;SDS011;19459;53.044;8.910;2024-02-28T06:06:03;136.43;;;51.00;;
33094;SDS011;19459;53.044;8.910;2024-02-28T06:08:37;134.20;;;49.28;;
33094;SDS011;19459;53.044;8.910;2024-02-28T06:11:04;149.25;;;50.53;;
33094;SDS011;19459;53.044;8.910;2024-02-28T06:13:30;181.52;;;53.63;;
33094;SDS011;19459;53.044;8.910;2024-02-28T06:15:56;149.00;;;50.97;;
33094;SDS011;19459;53.044;8.910;2024-02-28T06:18:22;146.68;;;49.20;;
33094;SDS011;19459;53.044;8.910;2024-02-28T06:20:52;154.15;;;52.67;;
33094;SDS011;19459;53.044;8.910;2024-02-28T06:23:19;142.02;;;50.78;;
33094;SDS011;19459;53.044;8.910;2024-02-28T06:25:46;136.52;;;48.85;;
33094;SDS011;19459;53.044;8.910;2024-02-28T06:28:11;136.15;;;50.00;;
33094;SDS011;19459;53.044;8.910;2024-02-28T06:30:37;148.65;;;50.17;;
33094;SDS011;19459;53.044;8.910;2024-02-28T06:33:03;161.60;;;51.17;;
33094;SDS011;19459;53.044;8.910;2024-02-28T06:35:29;151.77;;;49.63;;
33094;SDS011;19459;53.044;8.910;2024-02-28T06:37:55;143.10;;;50.08;;
33094;SDS011;19459;53.044;8.910;2024-02-28T06:40:21;153.05;;;51.70;;
33094;SDS011;19459;53.044;8.910;2024-02-28T06:42:47;150.70;;;51.70;;
33094;SDS011;19459;53.044;8.910;2024-02-28T06:45:13;157.13;;;51.55;;
33094;SDS011;19459;53.044;8.910;2024-02-28T06:47:39;155.15;;;52.40;;
33094;SDS011;19459;53.044;8.910;2024-02-28T06:50:09;167.45;;;55.60;;
33094;SDS011;19459;53.044;8.910;2024-02-28T06:52:34;151.65;;;51.35;;
33094;SDS011;19459;53.044;8.910;2024-02-28T06:55:00;153.88;;;49.58;;
33094;SDS011;19459;53.044;8.910;2024-02-28T06:57:31;157.90;;;51.78;;
33094;SDS011;19459;53.044;8.910;2024-02-28T06:59:56;170.63;;;54.78;;
33094;SDS011;19459;53.044;8.910;2024-02-28T07:02:22;156.98;;;51.45;;
33094;SDS011;19459;53.044;8.910;2024-02-28T07:04:48;147.50;;;50.67;;
33094;SDS011;19459;53.044;8.910;2024-02-28T07:07:14;134.73;;;47.05;;
33094;SDS011;19459;53.044;8.910;2024-02-28T07:09:39;137.00;;;46.97;;
33094;SDS011;19459;53.044;8.910;2024-02-28T07:12:05;129.55;;;44.92;;
33094;SDS011;19459;53.044;8.910;2024-02-28T07:14:31;130.73;;;46.05;;
33094;SDS011;19459;53.044;8.910;2024-02-28T07:16:57;141.13;;;47.58;;
33094;SDS011;19459;53.044;8.910;2024-02-28T07:19:22;145.32;;;50.40;;
33094;SDS011;19459;53.044;8.910;2024-02-28T07:21:48;151.82;;;50.05;;
33094;SDS011;19459;53.044;8.910;2024-02-28T07:24:14;130.80;;;44.85;;
33094;SDS011;19459;53.044;8.910;2024-02-28T07:26:40;144.30;;;48.67;;
33094;SDS011;19459;53.044;8.910;2024-02-28T07:29:07;131.30;;;45.80;;
33094;SDS011;19459;53.044;8.910;2024-02-28T07:31:33;135.65;;;47.03;;
33094;SDS011;19459;53.044;8.910;2024-02-28T07:33:58;126.75;;;44.53;;
33094;SDS011;19459;53.044;8.910;2024-02-28T07:36:24;130.35;;;47.35;;
33094;SDS011;19459;53.044;8.910;2024-02-28T07:38:50;113.85;;;43.47;;
33094;SDS011;19459;53.044;8.910;2024-02-28T07:41:17;120.25;;;45.20;;
33094;SDS011;19459;53.044;8.910;2024-02-28T07:43:43;118.22;;;43.88;;
33094;SDS011;19459;53.044;8.910;2024-02-28T07:46:09;107.55;;;41.55;;
33094;SDS011;19459;53.044;8.910;2024-02-28T07:48:36;103.43;;;42.05;;
33094;SDS011;19459;53.044;8.910;2024-02-28T07:51:06;117.50;;;41.95;;
33094;SDS011;19459;53.044;8.910;2024-02-28T07:53:33;102.32;;;39.88;;
33094;SDS011;19459;53.044;8.910;2024-02-28T07:56:00;100.38;;;39.83;;
33094;SDS011;19459;53.044;8.910;2024-02-28T07:58:26;101.07;;;37.85;;
33094;SDS011;19459;53.044;8.910;2024-02-28T08:00:52;89.20;;;38.60;;
33094;SDS011;19459;53.044;8.910;2024-02-28T08:03:18;100.75;;;39.65;;
33094;SDS011;19459;53.044;8.910;2024-02-28T08:05:44;94.10;;;36.83;;
33094;SDS011;19459;53.044;8.910;2024-02-28T08:08:11;81.32;;;34.78;;
33094;SDS011;19459;53.044;8.910;2024-02-28T08:10:37;84.18;;;35.72;;
33094;SDS011;19459;53.044;8.910;2024-02-28T08:13:03;84.07;;;37.50;;
33094;SDS011;19459;53.044;8.910;2024-02-28T08:15:30;88.15;;;37.70;;
33094;SDS011;19459;53.044;8.910;2024-02-28T08:17:56;84.95;;;37.05;;
33094;SDS011;19459;53.044;8.910;2024-02-28T08:20:23;89.18;;;37.08;;
33094;SDS011;19459;53.044;8.910;2024-02-28T08:22:49;83.85;;;35.15;;
33094;SDS011;19459;53.044;8.910;2024-02-28T08:25:17;77.07;;;35.85;;
33094;SDS011;19459;53.044;8.910;2024-02-28T08:27:43;81.43;;;36.50;;
33094;SDS011;19459;53.044;8.910;2024-02-28T08:30:10;72.78;;;34.20;;
33094;SDS011;19459;53.044;8.910;2024-02-28T08:32:36;73.97;;;32.80;;
33094;SDS011;19459;53.044;8.910;2024-02-28T08:35:02;66.03;;;30.55;;
33094;SDS011;19459;53.044;8.910;2024-02-28T08:37:28;65.80;;;28.45;;
33094;SDS011;19459;53.044;8.910;2024-02-28T08:39:54;73.25;;;34.05;;
33094;SDS011;19459;53.044;8.910;2024-02-28T08:42:26;76.88;;;34.50;;
33094;SDS011;19459;53.044;8.910;2024-02-28T08:44:52;66.25;;;29.80;;
33094;SDS011;19459;53.044;8.910;2024-02-28T08:47:23;62.90;;;30.25;;
33094;SDS011;19459;53.044;8.910;2024-02-28T08:49:49;60.92;;;29.73;;
33094;SDS011;19459;53.044;8.910;2024-02-28T08:52:16;60.17;;;30.50;;
33094;SDS011;19459;53.044;8.910;2024-02-28T08:54:42;62.15;;;30.10;;
33094;SDS011;19459;53.044;8.910;2024-02-28T08:57:07;55.13;;;26.92;;
33094;SDS011;19459;53.044;8.910;2024-02-28T08:59:33;63.53;;;31.00;;
33094;SDS011;19459;53.044;8.910;2024-02-28T09:01:59;58.70;;;27.27;;
33094;SDS011;19459;53.044;8.910;2024-02-28T09:04:25;57.97;;;27.48;;
33094;SDS011;19459;53.044;8.910;2024-02-28T09:06:51;62.60;;;29.20;;
33094;SDS011;19459;53.044;8.910;2024-02-28T09:09:18;54.72;;;26.30;;
33094;SDS011;19459;53.044;8.910;2024-02-28T09:11:44;50.13;;;25.42;;
33094;SDS011;19459;53.044;8.910;2024-02-28T09:14:10;54.55;;;25.25;;
33094;SDS011;19459;53.044;8.910;2024-02-28T09:16:35;61.38;;;28.55;;
33094;SDS011;19459;53.044;8.910;2024-02-28T09:19:02;52.58;;;25.98;;
33094;SDS011;19459;53.044;8.910;2024-02-28T09:21:29;50.88;;;25.42;;
33094;SDS011;19459;53.044;8.910;2024-02-28T09:23:55;52.40;;;25.42;;
33094;SDS011;19459;53.044;8.910;2024-02-28T09:26:21;49.65;;;24.98;;
33094;SDS011;19459;53.044;8.910;2024-02-28T09:28:47;47.35;;;24.65;;
33094;SDS011;19459;53.044;8.910;2024-02-28T09:31:12;51.28;;;25.67;;
33094;SDS011;19459;53.044;8.910;2024-02-28T09:33:43;48.70;;;24.23;;
33094;SDS011;19459;53.044;8.910;2024-02-28T09:36:10;47.38;;;24.60;;
33094;SDS011;19459;53.044;8.910;2024-02-28T09:38:36;51.50;;;25.05;;
33094;SDS011;19459;53.044;8.910;2024-02-28T09:41:03;51.40;;;24.02;;
33094;SDS011;19459;53.044;8.910;2024-02-28T09:43:30;47.45;;;23.88;;
33094;SDS011;19459;53.044;8.910;2024-02-28T09:46:03;45.03;;;23.83;;
33094;SDS011;19459;53.044;8.910;2024-02-28T09:48:30;48.60;;;24.85;;
33094;SDS011;19459;53.044;8.910;2024-02-28T09:50:56;46.50;;;23.58;;
33094;SDS011;19459;53.044;8.910;2024-02-28T09:53:23;48.58;;;24.70;;
33094;SDS011;19459;53.044;8.910;2024-02-28T09:55:49;48.75;;;24.67;;
33094;SDS011;19459;53.044;8.910;2024-02-28T09:58:16;47.53;;;25.23;;
33094;SDS011;19459;53.044;8.910;2024-02-28T10:00:43;49.42;;;24.77;;
33094;SDS011;19459;53.044;8.910;2024-02-28T10:03:12;45.33;;;23.48;;
33094;SDS011;19459;53.044;8.910;2024-02-28T10:05:39;48.40;;;22.60;;
33094;SDS011;19459;53.044;8.910;2024-02-28T10:08:05;45.20;;;23.70;;
33094;SDS011;19459;53.044;8.910;2024-02-28T10:10:33;43.65;;;24.58;;
33094;SDS011;19459;53.044;8.910;2024-02-28T10:13:08;46.10;;;23.13;;
33094;SDS011;19459;53.044;8.910;2024-02-28T10:16:27;49.88;;;24.42;;
33094;SDS011;19459;53.044;8.910;2024-02-28T10:18:54;49.72;;;25.00;;
33094;SDS011;19459;53.044;8.910;2024-02-28T10:21:20;49.22;;;25.70;;
33094;SDS011;19459;53.044;8.910;2024-02-28T10:23:46;56.53;;;26.65;;
33094;SDS011;19459;53.044;8.910;2024-02-28T10:26:12;57.95;;;28.15;;
33094;SDS011;19459;53.044;8.910;2024-02-28T10:28:38;57.28;;;27.20;;
33094;SDS011;19459;53.044;8.910;2024-02-28T10:31:06;58.08;;;28.30;;
33094;SDS011;19459;53.044;8.910;2024-02-28T10:33:32;58.75;;;28.30;;
33094;SDS011;19459;53.044;8.910;2024-02-28T10:36:00;57.15;;;25.98;;
33094;SDS011;19459;53.044;8.910;2024-02-28T10:38:30;56.22;;;27.17;;
33094;SDS011;19459;53.044;8.910;2024-02-28T10:40:58;51.15;;;26.77;;
33094;SDS011;19459;53.044;8.910;2024-02-28T10:43:28;61.58;;;27.77;;
33094;SDS011;19459;53.044;8.910;2024-02-28T10:45:59;60.67;;;28.40;;
33094;SDS011;19459;53.044;8.910;2024-02-28T10:48:26;55.30;;;27.45;;
33094;SDS011;19459;53.044;8.910;2024-02-28T10:50:52;53.20;;;27.42;;
33094;SDS011;19459;53.044;8.910;2024-02-28T10:53:22;52.78;;;27.25;;
33094;SDS011;19459;53.044;8.910;2024-02-28T10:55:58;50.67;;;26.45;;
33094;SDS011;19459;53.044;8.910;2024-02-28T10:58:30;51.30;;;26.67;;
33094;SDS011;19459;53.044;8.910;2024-02-28T11:01:02;51.58;;;28.13;;
33094;SDS011;19459;53.044;8.910;2024-02-28T11:03:29;61.75;;;28.27;;
33094;SDS011;19459;53.044;8.910;2024-02-28T11:05:55;56.50;;;29.75;;
33094;SDS011;19459;53.044;8.910;2024-02-28T11:08:26;58.10;;;28.65;;
33094;SDS011;19459;53.044;8.910;2024-02-28T11:10:57;53.88;;;27.92;;
33094;SDS011;19459;53.044;8.910;2024-02-28T11:13:27;60.17;;;31.05;;
33094;SDS011;19459;53.044;8.910;2024-02-28T11:15:53;58.42;;;29.77;;
33094;SDS011;19459;53.044;8.910;2024-02-28T11:18:22;60.90;;;30.90;;
33094;SDS011;19459;53.044;8.910;2024-02-28T11:20:48;63.25;;;29.48;;
33094;SDS011;19459;53.044;8.910;2024-02-28T11:23:17;65.65;;;31.73;;
33094;SDS011;19459;53.044;8.910;2024-02-28T11:25:43;73.65;;;34.30;;
33094;SDS011;19459;53.044;8.910;2024-02-28T11:28:09;58.67;;;30.73;;
33094;SDS011;19459;53.044;8.910;2024-02-28T11:30:35;57.75;;;30.40;;
33094;SDS011;19459;53.044;8.910;2024-02-28T11:33:01;60.38;;;31.48;;
33094;SDS011;19459;53.044;8.910;2024-02-28T11:35:27;62.47;;;31.25;;
33094;SDS011;19459;53.044;8.910;2024-02-28T11:37:56;73.82;;;31.58;;
33094;SDS011;19459;53.044;8.910;2024-02-28T11:40:23;72.90;;;32.80;;
33094;SDS011;19459;53.044;8.910;2024-02-28T11:42:50;76.35;;;34.10;;
33094;SDS011;19459;53.044;8.910;2024-02-28T11:45:17;80.55;;;34.55;;
33094;SDS011;19459;53.044;8.910;2024-02-28T11:47:44;72.72;;;35.85;;
33094;SDS011;19459;53.044;8.910;2024-02-28T11:50:10;73.55;;;33.80;;
33094;SDS011;19459;53.044;8.910;2024-02-28T11:52:36;80.38;;;34.20;;
33094;SDS011;19459;53.044;8.910;2024-02-28T11:55:02;80.75;;;36.50;;
33094;SDS011;19459;53.044;8.910;2024-02-28T11:57:29;81.03;;;33.80;;
33094;SDS011;19459;53.044;8.910;2024-02-28T12:00:01;81.18;;;34.92;;
33094;SDS011;19459;53.044;8.910;2024-02-28T12:02:29;80.15;;;36.40;;
33094;SDS011;19459;53.044;8.910;2024-02-28T12:04:59;85.72;;;35.70;;
33094;SDS011;19459;53.044;8.910;2024-02-28T12:07:26;83.38;;;34.38;;
33094;SDS011;19459;53.044;8.910;2024-02-28T12:09:53;82.57;;;34.83;;
33094;SDS011;19459;53.044;8.910;2024-02-28T12:12:19;95.40;;;39.67;;
33094;SDS011;19459;53.044;8.910;2024-02-28T12:14:47;84.57;;;37.75;;
33094;SDS011;19459;53.044;8.910;2024-02-28T12:17:14;81.72;;;35.90;;
33094;SDS011;19459;53.044;8.910;2024-02-28T12:19:40;80.47;;;34.78;;
33094;SDS011;19459;53.044;8.910;2024-02-28T12:22:07;85.30;;;36.92;;
33094;SDS011;19459;53.044;8.910;2024-02-28T12:24:33;100.70;;;42.60;;
33094;SDS011;19459;53.044;8.910;2024-02-28T12:26:59;89.75;;;36.03;;
33094;SDS011;19459;53.044;8.910;2024-02-28T12:29:24;85.82;;;37.40;;
33094;SDS011;19459;53.044;8.910;2024-02-28T12:31:50;88.05;;;37.42;;
33094;SDS011;19459;53.044;8.910;2024-02-28T12:34:16;90.65;;;35.63;;
33094;SDS011;19459;53.044;8.910;2024-02-28T12:36:42;100.63;;;39.88;;
33094;SDS011;19459;53.044;8.910;2024-02-28T12:39:08;92.90;;;38.05;;
33094;SDS011;19459;53.044;8.910;2024-02-28T12:41:37;91.03;;;38.33;;
33094;SDS011;19459;53.044;8.910;2024-02-28T12:44:07;93.68;;;38.53;;
33094;SDS011;19459;53.044;8.910;2024-02-28T12:46:33;87.95;;;37.35;;
33094;SDS011;19459;53.044;8.910;2024-02-28T12:49:00;84.15;;;37.67;;
33094;SDS011;19459;53.044;8.910;2024-02-28T12:51:44;85.22;;;37.10;;
33094;SDS011;19459;53.044;8.910;2024-02-28T12:54:11;89.85;;;38.05;;
33094;SDS011;19459;53.044;8.910;2024-02-28T12:56:39;91.30;;;37.72;;
33094;SDS011;19459;53.044;8.910;2024-02-28T12:59:09;97.85;;;39.88;;
33094;SDS011;19459;53.044;8.910;2024-02-28T13:01:35;92.35;;;37.85;;
33094;SDS011;19459;53.044;8.910;2024-02-28T13:04:02;90.88;;;39.38;;
33094;SDS011;19459;53.044;8.910;2024-02-28T13:06:27;94.38;;;40.22;;
33094;SDS011;19459;53.044;8.910;2024-02-28T13:08:53;91.43;;;38.90;;
33094;SDS011;19459;53.044;8.910;2024-02-28T13:11:20;92.70;;;39.88;;
33094;SDS011;19459;53.044;8.910;2024-02-28T13:13:48;95.20;;;41.08;;
33094;SDS011;19459;53.044;8.910;2024-02-28T13:16:18;94.82;;;43.00;;
33094;SDS011;19459;53.044;8.910;2024-02-28T13:18:46;106.70;;;43.95;;
33094;SDS011;19459;53.044;8.910;2024-02-28T13:21:12;93.25;;;43.33;;
33094;SDS011;19459;53.044;8.910;2024-02-28T13:23:38;90.57;;;40.40;;
33094;SDS011;19459;53.044;8.910;2024-02-28T13:26:04;95.78;;;42.13;;
33094;SDS011;19459;53.044;8.910;2024-02-28T13:28:31;94.60;;;41.50;;
33094;SDS011;19459;53.044;8.910;2024-02-28T13:30:58;93.70;;;44.15;;
33094;SDS011;19459;53.044;8.910;2024-02-28T13:33:25;102.60;;;41.50;;
33094;SDS011;19459;53.044;8.910;2024-02-28T13:35:52;107.63;;;45.28;;
33094;SDS011;19459;53.044;8.910;2024-02-28T13:38:18;105.07;;;45.25;;
33094;SDS011;19459;53.044;8.910;2024-02-28T13:40:45;94.40;;;41.22;;
33094;SDS011;19459;53.044;8.910;2024-02-28T13:43:14;108.70;;;44.78;;
33094;SDS011;19459;53.044;8.910;2024-02-28T13:45:46;109.03;;;45.15;;
33094;SDS011;19459;53.044;8.910;2024-02-28T13:48:17;108.32;;;43.92;;
33094;SDS011;19459;53.044;8.910;2024-02-28T13:50:46;93.78;;;42.78;;
33094;SDS011;19459;53.044;8.910;2024-02-28T13:53:14;103.03;;;44.17;;
33094;SDS011;19459;53.044;8.910;2024-02-28T13:55:41;103.25;;;44.75;;
33094;SDS011;19459;53.044;8.910;2024-02-28T13:58:08;105.03;;;45.63;;
33094;SDS011;19459;53.044;8.910;2024-02-28T14:00:36;104.35;;;44.65;;
33094;SDS011;19459;53.044;8.910;2024-02-28T14:03:05;99.85;;;44.60;;
33094;SDS011;19459;53.044;8.910;2024-02-28T14:05:31;93.28;;;43.47;;
33094;SDS011;19459;53.044;8.910;2024-02-28T14:07:57;97.00;;;44.58;;
33094;SDS011;19459;53.044;8.910;2024-02-28T14:10:24;95.05;;;44.45;;
33094;SDS011;19459;53.044;8.910;2024-02-28T14:12:50;97.90;;;46.30;;
33094;SDS011;19459;53.044;8.910;2024-02-28T14:15:19;99.97;;;42.28;;
33094;SDS011;19459;53.044;8.910;2024-02-28T14:17:45;110.50;;;48.67;;